Time,TemperatureF,DewpointF,PressureIn,WindDirection,WindDirectionDegrees,WindSpeedMPH,WindSpeedGustMPH,Humidity,HourlyPrecipIn,Conditions,Clouds,dailyrainin,SoftwareType,DateUTC
2013-03-14 01:42:00,34.0,28.0,29.55,SSW,202,6.0,12.0,78,-99.99,,,0.01,,2013-03-14 05:42:00,
2013-03-14 01:53:00,34.0,28.0,29.55,SSW,202,6.0,12.0,78,-99.99,,,0.01,,2013-03-14 05:53:00,
2013-03-14 02:02:00,34.0,28.0,29.55,SSW,202,6.0,12.0,78,-99.99,,,0.01,,2013-03-14 06:02:00,
2013-03-14 02:42:00,32.0,30.0,29.54,SE,135,5.0,12.0,92,-99.99,,,0.01,,2013-03-14 06:42:00,
2013-03-14 02:52:00,32.0,30.0,29.54,SE,135,5.0,12.0,92,-99.99,,,0.01,,2013-03-14 06:52:00,
2013-03-14 03:02:00,32.0,30.0,29.54,SE,135,5.0,12.0,92,-99.99,,,0.01,,2013-03-14 07:02:00,
2013-03-14 03:43:00,31.0,31.0,29.53,ENE,67,2.0,8.0,99,-99.99,,,0.01,,2013-03-14 07:43:00,
2013-03-14 03:52:00,31.0,31.0,29.53,ENE,67,2.0,8.0,99,-99.99,,,0.01,,2013-03-14 07:52:00,
2013-03-14 04:02:00,31.0,31.0,29.53,ENE,67,2.0,8.0,99,-99.99,,,0.01,,2013-03-14 08:02:00,
2013-03-14 04:42:00,30.0,30.0,29.51,East,90,0.0,4.0,100,-99.99,,,0.00,,2013-03-14 08:42:00,
2013-03-14 04:52:00,30.0,30.0,29.51,East,90,0.0,4.0,100,-99.99,,,0.00,,2013-03-14 08:52:00,
2013-03-14 05:02:00,30.0,30.0,29.51,East,90,0.0,4.0,100,-99.99,,,0.00,,2013-03-14 09:02:00,
2013-03-14 05:42:00,30.0,30.0,29.51,NE,45,0.0,5.0,100,-99.99,,,0.00,,2013-03-14 09:42:00,
2013-03-14 05:52:00,30.0,30.0,29.51,NE,45,0.0,5.0,100,-99.99,,,0.00,,2013-03-14 09:52:00,
2013-03-14 06:02:00,30.0,30.0,29.51,NE,45,0.0,5.0,100,-99.99,,,0.00,,2013-03-14 10:02:00,
2013-03-14 06:42:00,32.0,30.0,29.52,South,180,5.0,10.0,91,-99.99,,,0.00,,2013-03-14 10:42:00,
2013-03-14 06:52:00,32.0,30.0,29.52,South,180,5.0,10.0,91,-99.99,,,0.00,,2013-03-14 10:52:00,
2013-03-14 07:02:00,32.0,30.0,29.52,South,180,5.0,10.0,91,-99.99,,,0.00,,2013-03-14 11:02:00,
2013-03-14 07:42:00,30.0,28.0,29.52,SW,225,6.0,11.0,93,-99.99,,,-99.99,,2013-03-14 11:42:00,
2013-03-14 07:53:00,30.0,28.0,29.52,SW,225,6.0,11.0,93,-99.99,,,-99.99,,2013-03-14 11:53:00,
2013-03-14 08:02:00,30.0,28.0,29.52,SW,225,6.0,11.0,93,-99.99,,,-99.99,,2013-03-14 12:02:00,
2013-03-14 08:43:00,30.0,27.0,29.53,South,180,2.0,12.0,89,-99.99,,,0.00,,2013-03-14 12:43:00,
2013-03-14 08:52:00,30.0,27.0,29.53,South,180,2.0,12.0,89,-99.99,,,0.00,,2013-03-14 12:52:00,
2013-03-14 09:03:00,30.0,27.0,29.53,South,180,2.0,12.0,89,-99.99,,,0.00,,2013-03-14 13:03:00,
2013-03-14 09:43:00,32.0,26.0,29.53,WSW,247,7.0,20.0,77,-99.99,,,0.00,,2013-03-14 13:43:00,
2013-03-14 09:52:00,32.0,26.0,29.53,WSW,247,7.0,20.0,77,-99.99,,,0.00,,2013-03-14 13:52:00,
2013-03-14 10:02:00,32.0,26.0,29.53,WSW,247,7.0,20.0,77,-99.99,,,0.00,,2013-03-14 14:02:00,
2013-03-14 10:43:00,33.0,23.0,29.53,SW,225,10.0,22.0,67,-99.99,,,0.00,,2013-03-14 14:43:00,
2013-03-14 10:53:00,33.0,23.0,29.53,SW,225,10.0,22.0,67,-99.99,,,0.00,,2013-03-14 14:53:00,
2013-03-14 11:02:00,33.0,23.0,29.53,SW,225,10.0,22.0,67,-99.99,,,0.00,,2013-03-14 15:02:00,
2013-03-14 13:42:00,35.0,21.0,29.55,SW,225,11.0,32.0,57,-99.99,,,0.00,,2013-03-14 17:42:00,
2013-03-14 13:53:00,35.0,21.0,29.55,SW,225,11.0,32.0,57,-99.99,,,0.00,,2013-03-14 17:53:00,
2013-03-14 14:03:00,35.0,21.0,29.55,SW,225,11.0,32.0,57,-99.99,,,0.00,,2013-03-14 18:03:00,
2013-03-14 16:43:00,35.0,22.0,29.53,WSW,247,16.0,31.0,58,-99.99,,,0.00,,2013-03-14 20:43:00,
2013-03-14 16:52:00,35.0,22.0,29.53,WSW,247,16.0,31.0,58,-99.99,,,0.00,,2013-03-14 20:52:00,
2013-03-14 17:03:00,35.0,22.0,29.53,WSW,247,16.0,31.0,58,-99.99,,,0.00,,2013-03-14 21:03:00,
2013-03-14 17:04:00,35.0,18.0,29.55,West,270,8.0,24.0,49,-99.99,,,0.00,,2013-03-14 21:04:00,
2013-03-14 17:43:00,35.0,18.0,29.55,West,270,8.0,24.0,49,-99.99,,,0.00,,2013-03-14 21:43:00,
2013-03-14 17:53:00,35.0,18.0,29.55,West,270,8.0,24.0,49,-99.99,,,0.00,,2013-03-14 21:53:00,
2013-03-14 18:42:00,34.0,19.0,29.55,SW,225,3.0,24.0,54,-99.99,,,0.00,,2013-03-14 22:42:00,
2013-03-14 18:53:00,34.0,19.0,29.55,SW,225,3.0,24.0,54,-99.99,,,0.00,,2013-03-14 22:53:00,
2013-03-14 19:03:00,34.0,19.0,29.55,SW,225,3.0,24.0,54,-99.99,,,0.00,,2013-03-14 23:03:00,
2013-03-14 19:43:00,32.0,19.0,29.57,South,180,6.0,8.0,59,-99.99,,,0.00,,2013-03-14 23:43:00,
2013-03-14 19:54:00,32.0,19.0,29.57,South,180,6.0,8.0,59,-99.99,,,0.00,,2013-03-14 23:54:00,
2013-03-14 20:02:00,32.0,19.0,29.57,South,180,6.0,8.0,59,-99.99,,,0.00,,2013-03-15 00:02:00,
2013-03-14 20:43:00,32.0,23.0,29.59,SW,225,6.0,12.0,69,-99.99,,,0.00,,2013-03-15 00:43:00,
2013-03-14 20:52:00,32.0,23.0,29.59,SW,225,6.0,12.0,69,-99.99,,,0.00,,2013-03-15 00:52:00,
2013-03-14 21:02:00,32.0,23.0,29.59,SW,225,6.0,12.0,69,-99.99,,,0.00,,2013-03-15 01:02:00,
2013-03-14 21:43:00,29.0,19.0,29.61,WSW,247,8.0,12.0,66,-99.99,,,0.00,,2013-03-15 01:43:00,
2013-03-14 21:52:00,29.0,19.0,29.61,WSW,247,8.0,12.0,66,-99.99,,,0.00,,2013-03-15 01:52:00,
2013-03-14 22:03:00,29.0,19.0,29.61,WSW,247,8.0,12.0,66,-99.99,,,0.00,,2013-03-15 02:03:00,
2013-03-14 22:42:00,25.0,25.0,29.62,SW,225,6.0,19.0,100,-99.99,,,0.00,,2013-03-15 02:42:00,
2013-03-14 22:52:00,25.0,25.0,29.62,SW,225,6.0,19.0,100,-99.99,,,0.00,,2013-03-15 02:52:00,
2013-03-14 23:02:00,25.0,25.0,29.62,SW,225,6.0,19.0,100,-99.99,,,0.00,,2013-03-15 03:02:00,
2013-03-14 23:43:00,25.0,21.0,29.63,WSW,247,7.0,13.0,86,-99.99,,,0.00,,2013-03-15 03:43:00,
2013-03-14 23:53:00,25.0,21.0,29.63,WSW,247,7.0,13.0,86,-99.99,,,0.00,,2013-03-15 03:53:00,